JANET44 KXTA-KLAS
Flight info
| Callsign | JANET44 |
|---|---|
| Flight time | 0h 33m |
| Altitude | 20000 |
| Route | TOMBA1 BGZEE EXITT JAYSN JAYSN3 |
| Aircraft | B737/M-SDE2E3FGHIRWXY/LB1 |
Departure
| Time | 2026-05-04 19:02 |
|---|---|
| Airport | Homey (Area 51) Airport (KXTA) |
Arrival
| Time | 2026-05-04 19:35 |
|---|---|
| Airport | Harry Reid International Airport (KLAS) |
| Time | Latitude | Longitude | Altitude | Speed | Heading |
|---|---|---|---|---|---|
| 2026-05-04 18:36 | 37.23794 | -115.81187 | 4438 ft | 0 kts | 87° |
| 2026-05-04 18:55 | 37.23838 | -115.81139 | 4437 ft | 11 kts | 1° |
| 2026-05-04 18:55 | 37.23918 | -115.81146 | 4437 ft | 12 kts | 359° |
| 2026-05-04 18:56 | 37.23999 | -115.81152 | 4437 ft | 12 kts | 355° |
| 2026-05-04 18:56 | 37.24099 | -115.81159 | 4437 ft | 17 kts | 357° |
| 2026-05-04 18:56 | 37.24227 | -115.81169 | 4437 ft | 19 kts | 356° |
| 2026-05-04 18:56 | 37.24366 | -115.81179 | 4437 ft | 21 kts | 355° |
| 2026-05-04 18:57 | 37.24506 | -115.81188 | 4437 ft | 19 kts | 2° |
| 2026-05-04 18:57 | 37.24631 | -115.81164 | 4437 ft | 17 kts | 21° |
| 2026-05-04 18:57 | 37.24740 | -115.81107 | 4437 ft | 17 kts | 21° |
| 2026-05-04 18:57 | 37.24847 | -115.81060 | 4437 ft | 16 kts | 23° |
| 2026-05-04 18:58 | 37.24942 | -115.81002 | 4437 ft | 15 kts | 31° |
| 2026-05-04 18:58 | 37.24985 | -115.80893 | 4437 ft | 14 kts | 75° |
| 2026-05-04 18:58 | 37.24979 | -115.80782 | 4437 ft | 13 kts | 114° |
| 2026-05-04 18:58 | 37.24939 | -115.80686 | 4437 ft | 13 kts | 118° |
| 2026-05-04 18:59 | 37.24892 | -115.80574 | 4437 ft | 16 kts | 116° |
| 2026-05-04 18:59 | 37.24840 | -115.80444 | 4437 ft | 18 kts | 117° |
| 2026-05-04 18:59 | 37.24782 | -115.80301 | 4437 ft | 19 kts | 116° |
| 2026-05-04 18:59 | 37.24732 | -115.80142 | 4437 ft | 20 kts | 95° |
| 2026-05-04 19:00 | 37.24759 | -115.80010 | 4437 ft | 10 kts | 102° |
| 2026-05-04 19:00 | 37.24725 | -115.79971 | 4437 ft | 0 kts | 153° |
| 2026-05-04 19:01 | 37.24715 | -115.79966 | 4439 ft | 18 kts | 154° |
| 2026-05-04 19:01 | 37.24233 | -115.79709 | 4438 ft | 128 kts | 156° |
| 2026-05-04 19:01 | 37.23184 | -115.79155 | 4900 ft | 180 kts | 162° |
| 2026-05-04 19:02 | 37.21998 | -115.78523 | 5949 ft | 203 kts | 159° |
| 2026-05-04 19:02 | 37.20659 | -115.77793 | 6693 ft | 215 kts | 159° |
| 2026-05-04 19:02 | 37.19277 | -115.77051 | 7434 ft | 213 kts | 159° |
| 2026-05-04 19:02 | 37.17940 | -115.76369 | 8208 ft | 204 kts | 159° |
| 2026-05-04 19:03 | 37.16618 | -115.75718 | 9235 ft | 204 kts | 159° |
| 2026-05-04 19:03 | 37.15295 | -115.75097 | 10129 ft | 200 kts | 159° |
| 2026-05-04 19:03 | 37.14130 | -115.74251 | 11032 ft | 191 kts | 135° |
| 2026-05-04 19:03 | 37.13401 | -115.72865 | 11696 ft | 200 kts | 114° |
| 2026-05-04 19:04 | 37.13193 | -115.71078 | 12227 ft | 217 kts | 86° |
| 2026-05-04 19:04 | 37.13720 | -115.69243 | 12770 ft | 236 kts | 57° |
| 2026-05-04 19:04 | 37.15003 | -115.67871 | 13319 ft | 253 kts | 25° |
| 2026-05-04 19:04 | 37.16755 | -115.67466 | 13852 ft | 264 kts | 352° |
| 2026-05-04 19:05 | 37.18459 | -115.68284 | 14349 ft | 267 kts | 316° |
| 2026-05-04 19:05 | 37.19608 | -115.70100 | 14883 ft | 268 kts | 296° |
| 2026-05-04 19:05 | 37.20584 | -115.72101 | 15423 ft | 267 kts | 297° |
| 2026-05-04 19:05 | 37.21571 | -115.74067 | 16049 ft | 266 kts | 297° |
| 2026-05-04 19:06 | 37.22576 | -115.76021 | 16693 ft | 266 kts | 297° |
| 2026-05-04 19:06 | 37.23289 | -115.78067 | 17316 ft | 255 kts | 271° |
| 2026-05-04 19:06 | 37.23151 | -115.80214 | 18006 ft | 246 kts | 248° |
| 2026-05-04 19:06 | 37.22369 | -115.82104 | 18604 ft | 245 kts | 230° |
| 2026-05-04 19:07 | 37.21260 | -115.83800 | 18767 ft | 258 kts | 228° |
| 2026-05-04 19:07 | 37.20101 | -115.85492 | 18779 ft | 254 kts | 228° |
| 2026-05-04 19:07 | 37.18961 | -115.87150 | 18769 ft | 249 kts | 228° |
| 2026-05-04 19:07 | 37.17841 | -115.88787 | 18765 ft | 245 kts | 228° |
| 2026-05-04 19:08 | 37.16732 | -115.90418 | 18787 ft | 246 kts | 228° |
| 2026-05-04 19:08 | 37.15640 | -115.92031 | 18795 ft | 247 kts | 228° |
| 2026-05-04 19:08 | 37.14520 | -115.93690 | 18795 ft | 247 kts | 228° |
| 2026-05-04 19:08 | 37.13408 | -115.95335 | 18801 ft | 249 kts | 229° |
| 2026-05-04 19:09 | 37.12296 | -115.96982 | 18799 ft | 250 kts | 229° |
| 2026-05-04 19:09 | 37.11178 | -115.98635 | 18790 ft | 250 kts | 229° |
| 2026-05-04 19:09 | 37.10032 | -116.00224 | 18794 ft | 250 kts | 219° |
| 2026-05-04 19:09 | 37.08608 | -116.01429 | 18807 ft | 250 kts | 212° |
| 2026-05-04 19:10 | 37.07134 | -116.02552 | 18800 ft | 251 kts | 212° |
| 2026-05-04 19:10 | 37.05661 | -116.03678 | 18798 ft | 250 kts | 212° |
| 2026-05-04 19:10 | 37.04167 | -116.04827 | 18810 ft | 257 kts | 212° |
| 2026-05-04 19:10 | 37.02604 | -116.06040 | 18830 ft | 282 kts | 213° |
| 2026-05-04 19:11 | 37.00874 | -116.07386 | 18814 ft | 297 kts | 213° |
| 2026-05-04 19:11 | 36.99100 | -116.08764 | 18808 ft | 300 kts | 213° |
| 2026-05-04 19:11 | 36.97363 | -116.10114 | 18796 ft | 298 kts | 213° |
| 2026-05-04 19:11 | 36.96170 | -116.11040 | 18790 ft | 298 kts | 213° |
| 2026-05-04 19:12 | 36.94434 | -116.12390 | 18797 ft | 297 kts | 212° |
| 2026-05-04 19:12 | 36.90504 | -116.13732 | 18803 ft | 305 kts | 184° |
| 2026-05-04 19:12 | 36.88403 | -116.13429 | 18809 ft | 309 kts | 174° |
| 2026-05-04 19:13 | 36.86318 | -116.12863 | 18804 ft | 311 kts | 172° |
| 2026-05-04 19:13 | 36.84205 | -116.12245 | 18808 ft | 312 kts | 172° |
| 2026-05-04 19:13 | 36.82077 | -116.11624 | 18811 ft | 313 kts | 172° |
| 2026-05-04 19:13 | 36.80005 | -116.11032 | 18801 ft | 313 kts | 173° |
| 2026-05-04 19:14 | 36.77932 | -116.10449 | 18795 ft | 313 kts | 173° |
| 2026-05-04 19:14 | 36.75779 | -116.09851 | 18797 ft | 313 kts | 173° |
| 2026-05-04 19:14 | 36.73674 | -116.09272 | 18810 ft | 312 kts | 173° |
| 2026-05-04 19:14 | 36.71549 | -116.08690 | 18799 ft | 312 kts | 173° |
| 2026-05-04 19:15 | 36.69429 | -116.08112 | 18812 ft | 311 kts | 173° |
| 2026-05-04 19:15 | 36.67311 | -116.07537 | 18823 ft | 311 kts | 173° |
| 2026-05-04 19:15 | 36.65196 | -116.06962 | 18822 ft | 311 kts | 173° |
| 2026-05-04 19:15 | 36.63077 | -116.06386 | 18820 ft | 311 kts | 173° |
| 2026-05-04 19:16 | 36.60959 | -116.05809 | 18822 ft | 311 kts | 173° |
| 2026-05-04 19:16 | 36.58858 | -116.05137 | 18815 ft | 317 kts | 163° |
| 2026-05-04 19:16 | 36.57063 | -116.03442 | 18838 ft | 337 kts | 135° |
| 2026-05-04 19:16 | 36.55788 | -116.00960 | 18824 ft | 344 kts | 127° |
| 2026-05-04 19:17 | 36.54714 | -115.98257 | 18812 ft | 353 kts | 117° |
| 2026-05-04 19:17 | 36.53924 | -115.95346 | 18814 ft | 356 kts | 114° |
| 2026-05-04 19:17 | 36.53159 | -115.92419 | 18820 ft | 357 kts | 114° |
| 2026-05-04 19:17 | 36.52377 | -115.89486 | 18827 ft | 357 kts | 115° |
| 2026-05-04 19:18 | 36.51497 | -115.86616 | 18795 ft | 351 kts | 127° |
| 2026-05-04 19:18 | 36.50026 | -115.84353 | 18821 ft | 334 kts | 147° |
| 2026-05-04 19:18 | 36.48136 | -115.82771 | 18823 ft | 325 kts | 157° |
| 2026-05-04 19:18 | 36.46225 | -115.81423 | 18840 ft | 325 kts | 158° |
| 2026-05-04 19:19 | 36.44242 | -115.80056 | 18845 ft | 326 kts | 158° |
| 2026-05-04 19:19 | 36.42259 | -115.78695 | 18822 ft | 325 kts | 159° |
| 2026-05-04 19:19 | 36.40284 | -115.77322 | 18758 ft | 325 kts | 159° |
| 2026-05-04 19:19 | 36.38290 | -115.75928 | 18268 ft | 331 kts | 158° |
| 2026-05-04 19:20 | 36.36281 | -115.74514 | 17759 ft | 331 kts | 156° |
| 2026-05-04 19:20 | 36.34308 | -115.73123 | 17266 ft | 329 kts | 156° |
| 2026-05-04 19:20 | 36.32311 | -115.71713 | 16755 ft | 332 kts | 156° |
| 2026-05-04 19:20 | 36.30300 | -115.70300 | 16247 ft | 332 kts | 156° |
| 2026-05-04 19:21 | 36.28280 | -115.68880 | 15766 ft | 333 kts | 154° |
| 2026-05-04 19:21 | 36.26274 | -115.67457 | 15260 ft | 331 kts | 154° |
| 2026-05-04 19:21 | 36.24300 | -115.66083 | 15096 ft | 317 kts | 154° |
| 2026-05-04 19:21 | 36.22411 | -115.64743 | 15022 ft | 309 kts | 154° |
| 2026-05-04 19:22 | 36.20571 | -115.63384 | 14964 ft | 305 kts | 153° |
| 2026-05-04 19:22 | 36.18740 | -115.62099 | 14974 ft | 303 kts | 155° |
| 2026-05-04 19:22 | 36.16895 | -115.60791 | 14973 ft | 309 kts | 150° |
| 2026-05-04 19:22 | 36.15366 | -115.58893 | 14990 ft | 315 kts | 131° |
| 2026-05-04 19:23 | 36.14088 | -115.56702 | 14751 ft | 322 kts | 130° |
| 2026-05-04 19:23 | 36.12777 | -115.54429 | 14400 ft | 324 kts | 129° |
| 2026-05-04 19:23 | 36.11486 | -115.52162 | 14025 ft | 321 kts | 128° |
| 2026-05-04 19:23 | 36.10221 | -115.49901 | 13706 ft | 316 kts | 129° |
| 2026-05-04 19:24 | 36.08939 | -115.47716 | 13287 ft | 312 kts | 130° |
| 2026-05-04 19:24 | 36.07646 | -115.45571 | 12906 ft | 309 kts | 130° |
| 2026-05-04 19:24 | 36.06367 | -115.43440 | 12511 ft | 307 kts | 131° |
| 2026-05-04 19:24 | 36.05143 | -115.41372 | 12146 ft | 305 kts | 131° |
| 2026-05-04 19:25 | 36.03893 | -115.39251 | 11770 ft | 304 kts | 131° |
| 2026-05-04 19:25 | 36.02668 | -115.37174 | 11401 ft | 302 kts | 130° |
| 2026-05-04 19:25 | 36.01685 | -115.34873 | 11048 ft | 309 kts | 109° |
| 2026-05-04 19:25 | 36.01390 | -115.32272 | 11002 ft | 305 kts | 98° |
| 2026-05-04 19:26 | 36.01269 | -115.29670 | 11017 ft | 302 kts | 97° |
| 2026-05-04 19:26 | 36.01169 | -115.27047 | 10717 ft | 309 kts | 97° |
| 2026-05-04 19:26 | 36.01066 | -115.24434 | 10343 ft | 300 kts | 97° |
| 2026-05-04 19:26 | 36.00957 | -115.21894 | 9981 ft | 291 kts | 98° |
| 2026-05-04 19:27 | 36.00842 | -115.19436 | 9600 ft | 283 kts | 98° |
| 2026-05-04 19:27 | 36.00725 | -115.17034 | 9197 ft | 276 kts | 98° |
| 2026-05-04 19:27 | 36.00611 | -115.14725 | 9025 ft | 261 kts | 98° |
| 2026-05-04 19:27 | 36.00505 | -115.12554 | 9006 ft | 249 kts | 98° |
| 2026-05-04 19:28 | 36.00397 | -115.10436 | 9020 ft | 246 kts | 98° |
| 2026-05-04 19:28 | 36.00287 | -115.08332 | 9018 ft | 246 kts | 98° |
| 2026-05-04 19:28 | 36.00178 | -115.06243 | 9014 ft | 247 kts | 98° |
| 2026-05-04 19:28 | 36.00069 | -115.04122 | 9009 ft | 246 kts | 99° |
| 2026-05-04 19:29 | 35.99958 | -115.02009 | 9010 ft | 248 kts | 99° |
| 2026-05-04 19:29 | 35.99808 | -114.99893 | 9020 ft | 247 kts | 98° |
| 2026-05-04 19:29 | 36.00198 | -114.97785 | 8769 ft | 265 kts | 62° |
| 2026-05-04 19:29 | 36.01540 | -114.96225 | 8356 ft | 273 kts | 30° |
| 2026-05-04 19:30 | 36.03204 | -114.95163 | 7869 ft | 266 kts | 21° |
| 2026-05-04 19:30 | 36.04984 | -114.94677 | 7381 ft | 258 kts | 12° |
| 2026-05-04 19:30 | 36.06717 | -114.94275 | 6875 ft | 251 kts | 1° |
| 2026-05-04 19:30 | 36.08335 | -114.94595 | 6343 ft | 229 kts | 320° |
| 2026-05-04 19:31 | 36.08939 | -114.96185 | 5459 ft | 208 kts | 255° |
| 2026-05-04 19:31 | 36.08464 | -114.97852 | 4731 ft | 203 kts | 238° |
| 2026-05-04 19:31 | 36.07776 | -114.99283 | 4376 ft | 183 kts | 236° |
| 2026-05-04 19:31 | 36.07357 | -115.00639 | 4291 ft | 156 kts | 256° |
| 2026-05-04 19:32 | 36.07306 | -115.01822 | 4161 ft | 126 kts | 269° |
| 2026-05-04 19:32 | 36.07349 | -115.02837 | 3921 ft | 113 kts | 266° |
| 2026-05-04 19:32 | 36.07368 | -115.03815 | 3645 ft | 118 kts | 264° |
| 2026-05-04 19:32 | 36.07368 | -115.04876 | 3470 ft | 125 kts | 267° |
| 2026-05-04 19:33 | 36.07373 | -115.05927 | 3300 ft | 120 kts | 265° |
| 2026-05-04 19:33 | 36.07373 | -115.06982 | 3115 ft | 126 kts | 264° |
| 2026-05-04 19:33 | 36.07373 | -115.08083 | 2920 ft | 127 kts | 266° |
| 2026-05-04 19:33 | 36.07374 | -115.09152 | 2684 ft | 126 kts | 266° |
| 2026-05-04 19:34 | 36.07377 | -115.10257 | 2503 ft | 130 kts | 267° |
| 2026-05-04 19:34 | 36.07379 | -115.11336 | 2290 ft | 125 kts | 263° |
| 2026-05-04 19:34 | 36.07375 | -115.12414 | 2120 ft | 126 kts | 263° |
| 2026-05-04 19:34 | 36.07365 | -115.13439 | 2072 ft | 106 kts | 269° |
| 2026-05-04 19:35 | 36.07373 | -115.14030 | 2082 ft | 86 kts | 273° |
| 2026-05-04 19:35 | 36.07370 | -115.14314 | 2087 ft | 36 kts | 284° |
| 2026-05-04 19:35 | 36.07451 | -115.14542 | 2093 ft | 28 kts | 300° |
| 2026-05-04 19:35 | 36.07498 | -115.14670 | 2096 ft | 0 kts | 281° |
| 2026-05-04 19:39 | 36.07502 | -115.14672 | 2096 ft | 1 kts | 336° |
| 2026-05-04 19:39 | 36.07541 | -115.14659 | 2098 ft | 11 kts | 9° |
| 2026-05-04 19:39 | 36.07617 | -115.14654 | 2101 ft | 11 kts | 0° |
| 2026-05-04 19:40 | 36.07703 | -115.14655 | 2099 ft | 15 kts | 359° |
| 2026-05-04 19:40 | 36.07779 | -115.14731 | 2097 ft | 17 kts | 276° |
| 2026-05-04 19:40 | 36.07788 | -115.14878 | 2098 ft | 17 kts | 272° |
| 2026-05-04 19:40 | 36.07797 | -115.15019 | 2099 ft | 17 kts | 275° |
| 2026-05-04 19:41 | 36.07804 | -115.15164 | 2099 ft | 17 kts | 271° |
| 2026-05-04 19:41 | 36.07804 | -115.15308 | 2101 ft | 18 kts | 270° |
| 2026-05-04 19:41 | 36.07804 | -115.15473 | 2102 ft | 20 kts | 269° |
| 2026-05-04 19:41 | 36.07805 | -115.15637 | 2105 ft | 19 kts | 269° |
| 2026-05-04 19:42 | 36.07803 | -115.15789 | 2110 ft | 17 kts | 270° |
| 2026-05-04 19:42 | 36.07804 | -115.15918 | 2115 ft | 15 kts | 270° |
| 2026-05-04 19:42 | 36.07803 | -115.16029 | 2120 ft | 6 kts | 270° |
| 2026-05-04 19:42 | 36.07803 | -115.16093 | 2123 ft | 8 kts | 270° |
| 2026-05-04 19:43 | 36.07803 | -115.16159 | 2127 ft | 8 kts | 268° |
| 2026-05-04 19:43 | 36.07803 | -115.16235 | 2131 ft | 8 kts | 270° |
| 2026-05-04 19:43 | 36.07803 | -115.16287 | 2135 ft | 5 kts | 270° |
| 2026-05-04 19:43 | 36.07802 | -115.16320 | 2137 ft | 3 kts | 270° |
| 2026-05-04 19:44 | 36.07803 | -115.16361 | 2140 ft | 5 kts | 271° |
| 2026-05-04 19:44 | 36.07803 | -115.16383 | 2142 ft | 0 kts | 270° |
| 2026-05-04 19:45 | 36.07803 | -115.16394 | 2142 ft | 2 kts | 270° |
| 2026-05-04 19:45 | 36.07800 | -115.16428 | 2144 ft | 4 kts | 270° |
| 2026-05-04 19:45 | 36.07803 | -115.16493 | 2150 ft | 11 kts | 270° |
| 2026-05-04 19:45 | 36.07803 | -115.16607 | 2153 ft | 15 kts | 269° |
| 2026-05-04 19:46 | 36.07803 | -115.16747 | 2160 ft | 16 kts | 269° |
| 2026-05-04 19:46 | 36.07803 | -115.16875 | 2167 ft | 14 kts | 269° |
| 2026-05-04 19:46 | 36.07802 | -115.16982 | 2167 ft | 11 kts | 270° |
| 2026-05-04 19:46 | 36.07814 | -115.17070 | 2171 ft | 11 kts | 304° |
| 2026-05-04 19:47 | 36.07878 | -115.17082 | 2171 ft | 10 kts | 21° |
| 2026-05-04 19:47 | 36.07942 | -115.17042 | 2169 ft | 10 kts | 23° |
| 2026-05-04 19:47 | 36.08010 | -115.17006 | 2169 ft | 11 kts | 24° |
| 2026-05-04 19:47 | 36.08075 | -115.16969 | 2165 ft | 10 kts | 25° |
| 2026-05-04 19:48 | 36.08140 | -115.16932 | 2166 ft | 10 kts | 24° |
| 2026-05-04 19:48 | 36.08208 | -115.16892 | 2161 ft | 14 kts | 25° |
| 2026-05-04 19:48 | 36.08329 | -115.16823 | 2159 ft | 22 kts | 25° |
| 2026-05-04 19:48 | 36.08465 | -115.16746 | 2157 ft | 21 kts | 25° |
| 2026-05-04 19:49 | 36.08597 | -115.16668 | 2153 ft | 21 kts | 25° |
| 2026-05-04 19:49 | 36.08724 | -115.16597 | 2149 ft | 19 kts | 25° |
| 2026-05-04 19:49 | 36.08835 | -115.16532 | 2144 ft | 18 kts | 25° |
| 2026-05-04 19:49 | 36.08939 | -115.16477 | 2142 ft | 16 kts | 25° |
| 2026-05-04 19:50 | 36.09032 | -115.16424 | 2138 ft | 15 kts | 9° |
| 2026-05-04 19:50 | 36.09062 | -115.16436 | 2138 ft | 3 kts | 315° |
| 2026-05-04 19:50 | 36.09067 | -115.16462 | 2141 ft | 4 kts | 266° |
| 2026-05-04 19:50 | 36.09068 | -115.16509 | 2144 ft | 7 kts | 279° |
| 2026-05-04 19:51 | 36.09093 | -115.16560 | 2147 ft | 7 kts | 322° |
| 2026-05-04 19:51 | 36.09144 | -115.16575 | 2148 ft | 8 kts | 2° |
| 2026-05-04 19:51 | 36.09165 | -115.16560 | 2147 ft | 3 kts | 53° |
| 2026-05-04 19:51 | 36.09170 | -115.16538 | 2146 ft | 3 kts | 74° |
| 2026-05-04 19:52 | 36.09164 | -115.16502 | 2142 ft | 9 kts | 108° |
| 2026-05-04 19:52 | 36.09151 | -115.16421 | 2138 ft | 5 kts | 71° |
| 2026-05-04 19:52 | 36.09191 | -115.16412 | 2138 ft | 6 kts | 341° |
| 2026-05-04 19:52 | 36.09207 | -115.16432 | 2139 ft | 3 kts | 289° |
| 2026-05-04 19:53 | 36.09201 | -115.16455 | 2141 ft | 3 kts | 242° |
| 2026-05-04 19:53 | 36.09193 | -115.16473 | 2142 ft | 2 kts | 241° |